Gorjacinsk, Russia
Current Conditions -  °F | °C
As of 4:30 PM on Sunday 26 Oct 2014 (Local Time) from UIUU Reporting Station
Few Clouds Few Clouds  
Wind Chill: 20°   Ceiling: Unl
Heat Index: 30°   Visibility: 6mi
Dew Point:   Wind: 13mph
Humidity: 40%   Direction: 110°ESE
Pressure: 30.3"   Gusts: NA
Location:  52.98°N, 108.28°E
Report Text: UIUU 260830Z 11006MPS 9999 FEW100 M01/M13 Q1026 NOSIG RMKQFE724/0966 08CLRD60
Loading
Personal Weather Stations






























Interactive Weather Map
Tropical Storm Tracking
New forecast layout! Learn more

10-Day Weather Forecast

Advertisements
Track Severe Weather on mobile